sensor_id;sensor_type;location;lat;lon;timestamp;temperature;humidity
18694;DHT22;9477;51.414;10.362;2024-03-08T00:01:09;5.80;91.30
18694;DHT22;9477;51.414;10.362;2024-03-08T00:03:14;5.80;91.30
18694;DHT22;9477;51.414;10.362;2024-03-08T00:05:17;5.80;91.30
18694;DHT22;9477;51.414;10.362;2024-03-08T00:07:20;5.80;91.40
18694;DHT22;9477;51.414;10.362;2024-03-08T00:09:23;5.80;91.40
18694;DHT22;9477;51.414;10.362;2024-03-08T00:11:26;5.80;91.30
18694;DHT22;9477;51.414;10.362;2024-03-08T00:13:29;5.80;91.30
18694;DHT22;9477;51.414;10.362;2024-03-08T00:15:32;5.70;91.30
18694;DHT22;9477;51.414;10.362;2024-03-08T00:17:34;5.70;91.30
18694;DHT22;9477;51.414;10.362;2024-03-08T00:19:38;5.70;91.40
18694;DHT22;9477;51.414;10.362;2024-03-08T00:21:43;5.80;91.40
18694;DHT22;9477;51.414;10.362;2024-03-08T00:23:46;5.80;91.40
18694;DHT22;9477;51.414;10.362;2024-03-08T00:25:49;5.80;91.40
18694;DHT22;9477;51.414;10.362;2024-03-08T00:27:52;5.80;91.30
18694;DHT22;9477;51.414;10.362;2024-03-08T00:29:57;5.90;91.40
18694;DHT22;9477;51.414;10.362;2024-03-08T00:32:00;5.80;91.30
18694;DHT22;9477;51.414;10.362;2024-03-08T00:34:02;5.80;91.30
18694;DHT22;9477;51.414;10.362;2024-03-08T00:36:07;5.90;91.40
18694;DHT22;9477;51.414;10.362;2024-03-08T00:38:10;5.90;91.40
18694;DHT22;9477;51.414;10.362;2024-03-08T00:40:13;5.90;91.30
18694;DHT22;9477;51.414;10.362;2024-03-08T00:42:16;5.90;91.30
18694;DHT22;9477;51.414;10.362;2024-03-08T00:44:19;5.90;91.20
18694;DHT22;9477;51.414;10.362;2024-03-08T00:46:22;5.80;91.20
18694;DHT22;9477;51.414;10.362;2024-03-08T00:48:25;5.80;91.30
18694;DHT22;9477;51.414;10.362;2024-03-08T00:50:28;5.70;91.30
18694;DHT22;9477;51.414;10.362;2024-03-08T00:52:31;5.80;91.30
18694;DHT22;9477;51.414;10.362;2024-03-08T00:54:36;5.80;91.40
18694;DHT22;9477;51.414;10.362;2024-03-08T00:56:39;5.80;91.30
18694;DHT22;9477;51.414;10.362;2024-03-08T00:58:42;5.70;91.20
18694;DHT22;9477;51.414;10.362;2024-03-08T01:00:45;5.70;91.20
18694;DHT22;9477;51.414;10.362;2024-03-08T01:02:47;5.70;91.20
18694;DHT22;9477;51.414;10.362;2024-03-08T01:04:50;5.70;91.30
18694;DHT22;9477;51.414;10.362;2024-03-08T01:06:52;5.70;91.30
18694;DHT22;9477;51.414;10.362;2024-03-08T01:08:57;5.70;91.30
18694;DHT22;9477;51.414;10.362;2024-03-08T01:11:00;5.70;91.30
18694;DHT22;9477;51.414;10.362;2024-03-08T01:13:03;5.70;91.30
18694;DHT22;9477;51.414;10.362;2024-03-08T01:15:07;5.70;91.30
18694;DHT22;9477;51.414;10.362;2024-03-08T01:17:10;5.70;91.30
18694;DHT22;9477;51.414;10.362;2024-03-08T01:19:13;5.70;91.20
18694;DHT22;9477;51.414;10.362;2024-03-08T01:21:17;5.60;91.10
18694;DHT22;9477;51.414;10.362;2024-03-08T01:23:19;5.60;91.20
18694;DHT22;9477;51.414;10.362;2024-03-08T01:25:23;5.50;91.10
18694;DHT22;9477;51.414;10.362;2024-03-08T01:27:26;5.50;91.20
18694;DHT22;9477;51.414;10.362;2024-03-08T01:29:28;5.40;91.20
18694;DHT22;9477;51.414;10.362;2024-03-08T01:31:31;5.50;91.30
18694;DHT22;9477;51.414;10.362;2024-03-08T01:33:34;5.50;91.30
18694;DHT22;9477;51.414;10.362;2024-03-08T01:35:37;5.40;91.20
18694;DHT22;9477;51.414;10.362;2024-03-08T01:37:43;5.50;91.20
18694;DHT22;9477;51.414;10.362;2024-03-08T01:39:45;5.40;91.20
18694;DHT22;9477;51.414;10.362;2024-03-08T01:41:50;5.40;91.10
18694;DHT22;9477;51.414;10.362;2024-03-08T01:43:53;5.30;91.20
18694;DHT22;9477;51.414;10.362;2024-03-08T01:45:55;5.40;91.20
18694;DHT22;9477;51.414;10.362;2024-03-08T01:48:00;5.40;91.30
18694;DHT22;9477;51.414;10.362;2024-03-08T01:50:06;5.40;91.20
18694;DHT22;9477;51.414;10.362;2024-03-08T01:52:10;5.40;91.10
18694;DHT22;9477;51.414;10.362;2024-03-08T01:54:14;5.30;91.20
18694;DHT22;9477;51.414;10.362;2024-03-08T01:56:19;5.30;91.20
18694;DHT22;9477;51.414;10.362;2024-03-08T01:58:23;5.30;91.30
18694;DHT22;9477;51.414;10.362;2024-03-08T02:00:26;5.30;91.20
18694;DHT22;9477;51.414;10.362;2024-03-08T02:02:32;5.30;91.20
18694;DHT22;9477;51.414;10.362;2024-03-08T02:04:35;5.30;91.20
18694;DHT22;9477;51.414;10.362;2024-03-08T02:06:40;5.30;91.20
18694;DHT22;9477;51.414;10.362;2024-03-08T02:08:43;5.30;91.30
18694;DHT22;9477;51.414;10.362;2024-03-08T02:10:46;5.20;91.20
18694;DHT22;9477;51.414;10.362;2024-03-08T02:12:49;5.20;91.30
18694;DHT22;9477;51.414;10.362;2024-03-08T02:14:53;5.30;91.30
18694;DHT22;9477;51.414;10.362;2024-03-08T02:17:00;5.30;91.30
18694;DHT22;9477;51.414;10.362;2024-03-08T02:19:03;5.30;91.20
18694;DHT22;9477;51.414;10.362;2024-03-08T02:21:07;5.30;91.20
18694;DHT22;9477;51.414;10.362;2024-03-08T02:23:11;5.30;91.30
18694;DHT22;9477;51.414;10.362;2024-03-08T02:25:15;5.20;91.20
18694;DHT22;9477;51.414;10.362;2024-03-08T02:27:23;5.30;91.30
18694;DHT22;9477;51.414;10.362;2024-03-08T02:29:26;5.30;91.30
18694;DHT22;9477;51.414;10.362;2024-03-08T02:31:29;5.30;91.30
18694;DHT22;9477;51.414;10.362;2024-03-08T02:33:31;5.30;91.30
18694;DHT22;9477;51.414;10.362;2024-03-08T02:35:34;5.30;91.30
18694;DHT22;9477;51.414;10.362;2024-03-08T02:37:38;5.30;91.20
18694;DHT22;9477;51.414;10.362;2024-03-08T02:39:41;5.30;91.20
18694;DHT22;9477;51.414;10.362;2024-03-08T02:41:44;5.20;91.20
18694;DHT22;9477;51.414;10.362;2024-03-08T02:43:47;5.20;91.30
18694;DHT22;9477;51.414;10.362;2024-03-08T02:45:50;5.10;91.30
18694;DHT22;9477;51.414;10.362;2024-03-08T02:47:54;5.10;91.30
18694;DHT22;9477;51.414;10.362;2024-03-08T02:49:58;5.10;91.40
18694;DHT22;9477;51.414;10.362;2024-03-08T02:52:00;5.10;91.40
18694;DHT22;9477;51.414;10.362;2024-03-08T02:54:05;5.10;91.30
18694;DHT22;9477;51.414;10.362;2024-03-08T02:56:08;5.20;91.40
18694;DHT22;9477;51.414;10.362;2024-03-08T02:58:14;5.20;91.40
18694;DHT22;9477;51.414;10.362;2024-03-08T03:00:18;5.20;91.40
18694;DHT22;9477;51.414;10.362;2024-03-08T03:02:21;5.10;91.30
18694;DHT22;9477;51.414;10.362;2024-03-08T03:04:25;5.10;91.40
18694;DHT22;9477;51.414;10.362;2024-03-08T03:06:28;5.20;91.50
18694;DHT22;9477;51.414;10.362;2024-03-08T03:08:31;5.20;91.30
18694;DHT22;9477;51.414;10.362;2024-03-08T03:10:34;5.20;91.40
18694;DHT22;9477;51.414;10.362;2024-03-08T03:12:37;5.20;91.40
18694;DHT22;9477;51.414;10.362;2024-03-08T03:14:40;5.20;91.40
18694;DHT22;9477;51.414;10.362;2024-03-08T03:16:43;5.20;91.40
18694;DHT22;9477;51.414;10.362;2024-03-08T03:18:47;5.20;91.30
18694;DHT22;9477;51.414;10.362;2024-03-08T03:20:51;5.20;91.40
18694;DHT22;9477;51.414;10.362;2024-03-08T03:22:53;5.10;91.30
18694;DHT22;9477;51.414;10.362;2024-03-08T03:24:58;5.10;91.40
18694;DHT22;9477;51.414;10.362;2024-03-08T03:27:03;5.00;91.30
18694;DHT22;9477;51.414;10.362;2024-03-08T03:29:12;5.00;91.40
18694;DHT22;9477;51.414;10.362;2024-03-08T03:31:15;5.00;91.40
18694;DHT22;9477;51.414;10.362;2024-03-08T03:33:20;5.00;91.50
18694;DHT22;9477;51.414;10.362;2024-03-08T03:35:24;5.00;91.40
18694;DHT22;9477;51.414;10.362;2024-03-08T03:37:26;4.90;91.40
18694;DHT22;9477;51.414;10.362;2024-03-08T03:39:28;4.90;91.40
18694;DHT22;9477;51.414;10.362;2024-03-08T03:41:33;4.90;91.40
18694;DHT22;9477;51.414;10.362;2024-03-08T03:43:37;4.90;91.40
18694;DHT22;9477;51.414;10.362;2024-03-08T03:45:41;4.90;91.40
18694;DHT22;9477;51.414;10.362;2024-03-08T03:47:44;4.80;91.50
18694;DHT22;9477;51.414;10.362;2024-03-08T03:49:47;4.90;91.50
18694;DHT22;9477;51.414;10.362;2024-03-08T03:51:49;4.80;91.40
18694;DHT22;9477;51.414;10.362;2024-03-08T03:53:52;4.80;91.40
18694;DHT22;9477;51.414;10.362;2024-03-08T03:55:55;4.80;91.50
18694;DHT22;9477;51.414;10.362;2024-03-08T03:57:58;4.80;91.40
18694;DHT22;9477;51.414;10.362;2024-03-08T04:00:05;4.80;91.50
18694;DHT22;9477;51.414;10.362;2024-03-08T04:02:11;4.80;91.50
18694;DHT22;9477;51.414;10.362;2024-03-08T04:04:14;4.80;91.50
18694;DHT22;9477;51.414;10.362;2024-03-08T04:06:17;4.70;91.60
18694;DHT22;9477;51.414;10.362;2024-03-08T04:08:20;4.80;91.60
18694;DHT22;9477;51.414;10.362;2024-03-08T04:10:25;4.80;91.60
18694;DHT22;9477;51.414;10.362;2024-03-08T04:12:28;4.70;91.70
18694;DHT22;9477;51.414;10.362;2024-03-08T04:14:32;4.80;91.70
18694;DHT22;9477;51.414;10.362;2024-03-08T04:16:37;4.80;91.70
18694;DHT22;9477;51.414;10.362;2024-03-08T04:18:40;4.80;91.70
18694;DHT22;9477;51.414;10.362;2024-03-08T04:20:43;4.80;91.70
18694;DHT22;9477;51.414;10.362;2024-03-08T04:22:45;4.80;91.50
18694;DHT22;9477;51.414;10.362;2024-03-08T04:24:50;4.70;91.60
18694;DHT22;9477;51.414;10.362;2024-03-08T04:26:52;4.60;91.70
18694;DHT22;9477;51.414;10.362;2024-03-08T04:28:56;4.60;91.70
18694;DHT22;9477;51.414;10.362;2024-03-08T04:30:58;4.60;91.70
18694;DHT22;9477;51.414;10.362;2024-03-08T04:33:04;4.60;91.80
18694;DHT22;9477;51.414;10.362;2024-03-08T04:35:06;4.70;91.90
18694;DHT22;9477;51.414;10.362;2024-03-08T04:37:09;4.80;91.90
18694;DHT22;9477;51.414;10.362;2024-03-08T04:39:15;4.80;91.80
18694;DHT22;9477;51.414;10.362;2024-03-08T04:41:20;4.90;91.70
18694;DHT22;9477;51.414;10.362;2024-03-08T04:43:25;4.90;91.80
18694;DHT22;9477;51.414;10.362;2024-03-08T04:45:28;4.90;91.70
18694;DHT22;9477;51.414;10.362;2024-03-08T04:47:31;4.90;91.70
18694;DHT22;9477;51.414;10.362;2024-03-08T04:49:35;4.90;91.70
18694;DHT22;9477;51.414;10.362;2024-03-08T04:51:38;4.90;91.70
18694;DHT22;9477;51.414;10.362;2024-03-08T04:53:42;4.90;91.70
18694;DHT22;9477;51.414;10.362;2024-03-08T04:55:45;4.90;91.60
18694;DHT22;9477;51.414;10.362;2024-03-08T04:57:47;4.90;91.60
18694;DHT22;9477;51.414;10.362;2024-03-08T04:59:50;5.00;91.60
18694;DHT22;9477;51.414;10.362;2024-03-08T05:01:53;5.00;91.60
18694;DHT22;9477;51.414;10.362;2024-03-08T05:03:56;5.00;91.60
18694;DHT22;9477;51.414;10.362;2024-03-08T05:06:07;4.90;91.50
18694;DHT22;9477;51.414;10.362;2024-03-08T05:08:10;4.90;91.50
18694;DHT22;9477;51.414;10.362;2024-03-08T05:10:13;4.90;91.50
18694;DHT22;9477;51.414;10.362;2024-03-08T05:12:19;4.90;91.50
18694;DHT22;9477;51.414;10.362;2024-03-08T05:14:22;4.80;91.40
18694;DHT22;9477;51.414;10.362;2024-03-08T05:16:26;4.80;91.50
18694;DHT22;9477;51.414;10.362;2024-03-08T05:18:29;4.70;91.50
18694;DHT22;9477;51.414;10.362;2024-03-08T05:20:34;4.80;91.60
18694;DHT22;9477;51.414;10.362;2024-03-08T05:22:40;4.70;91.50
18694;DHT22;9477;51.414;10.362;2024-03-08T05:24:43;4.70;91.50
18694;DHT22;9477;51.414;10.362;2024-03-08T05:26:46;4.70;91.50
18694;DHT22;9477;51.414;10.362;2024-03-08T05:28:49;4.80;91.50
18694;DHT22;9477;51.414;10.362;2024-03-08T05:30:52;4.80;91.40
18694;DHT22;9477;51.414;10.362;2024-03-08T05:32:58;4.70;91.30
18694;DHT22;9477;51.414;10.362;2024-03-08T05:35:01;4.70;91.40
18694;DHT22;9477;51.414;10.362;2024-03-08T05:37:08;4.70;91.50
18694;DHT22;9477;51.414;10.362;2024-03-08T05:39:13;4.70;91.50
18694;DHT22;9477;51.414;10.362;2024-03-08T05:41:16;4.70;91.50
18694;DHT22;9477;51.414;10.362;2024-03-08T05:43:20;4.60;91.50
18694;DHT22;9477;51.414;10.362;2024-03-08T05:45:23;4.70;91.60
18694;DHT22;9477;51.414;10.362;2024-03-08T05:47:27;4.60;91.50
18694;DHT22;9477;51.414;10.362;2024-03-08T05:49:32;4.70;91.60
18694;DHT22;9477;51.414;10.362;2024-03-08T05:51:36;4.70;91.60
18694;DHT22;9477;51.414;10.362;2024-03-08T05:53:40;4.60;91.60
18694;DHT22;9477;51.414;10.362;2024-03-08T05:55:45;4.70;91.60
18694;DHT22;9477;51.414;10.362;2024-03-08T05:57:47;4.60;91.60
18694;DHT22;9477;51.414;10.362;2024-03-08T05:59:50;4.60;91.60
18694;DHT22;9477;51.414;10.362;2024-03-08T06:01:53;4.70;91.70
18694;DHT22;9477;51.414;10.362;2024-03-08T06:03:56;4.70;91.70
18694;DHT22;9477;51.414;10.362;2024-03-08T06:06:00;4.70;91.70
18694;DHT22;9477;51.414;10.362;2024-03-08T06:08:04;4.70;91.70
18694;DHT22;9477;51.414;10.362;2024-03-08T06:10:09;4.70;91.70
18694;DHT22;9477;51.414;10.362;2024-03-08T06:12:15;4.70;91.70
18694;DHT22;9477;51.414;10.362;2024-03-08T06:14:20;4.60;91.70
18694;DHT22;9477;51.414;10.362;2024-03-08T06:16:23;4.60;91.80
18694;DHT22;9477;51.414;10.362;2024-03-08T06:18:26;4.60;91.80
18694;DHT22;9477;51.414;10.362;2024-03-08T06:20:28;4.60;91.80
18694;DHT22;9477;51.414;10.362;2024-03-08T06:22:31;4.60;91.90
18694;DHT22;9477;51.414;10.362;2024-03-08T06:24:34;4.60;91.90
18694;DHT22;9477;51.414;10.362;2024-03-08T06:26:38;4.60;91.90
18694;DHT22;9477;51.414;10.362;2024-03-08T06:28:42;4.60;91.90
18694;DHT22;9477;51.414;10.362;2024-03-08T06:30:45;4.60;92.00
18694;DHT22;9477;51.414;10.362;2024-03-08T06:32:48;4.70;92.00
18694;DHT22;9477;51.414;10.362;2024-03-08T06:34:51;4.60;92.10
18694;DHT22;9477;51.414;10.362;2024-03-08T06:36:53;4.60;92.20
18694;DHT22;9477;51.414;10.362;2024-03-08T06:39:02;4.60;92.20
18694;DHT22;9477;51.414;10.362;2024-03-08T06:41:11;4.50;92.40
18694;DHT22;9477;51.414;10.362;2024-03-08T06:43:17;4.60;92.50
18694;DHT22;9477;51.414;10.362;2024-03-08T06:45:21;4.60;92.50
18694;DHT22;9477;51.414;10.362;2024-03-08T06:47:25;4.70;92.50
18694;DHT22;9477;51.414;10.362;2024-03-08T06:49:28;4.70;92.60
18694;DHT22;9477;51.414;10.362;2024-03-08T06:51:31;4.70;92.60
18694;DHT22;9477;51.414;10.362;2024-03-08T06:53:34;4.70;92.90
18694;DHT22;9477;51.414;10.362;2024-03-08T06:55:37;4.80;92.70
18694;DHT22;9477;51.414;10.362;2024-03-08T06:57:39;4.80;92.70
18694;DHT22;9477;51.414;10.362;2024-03-08T06:59:43;4.80;92.70
18694;DHT22;9477;51.414;10.362;2024-03-08T07:01:48;4.80;92.70
18694;DHT22;9477;51.414;10.362;2024-03-08T07:03:50;4.90;92.80
18694;DHT22;9477;51.414;10.362;2024-03-08T07:05:54;4.90;92.80
18694;DHT22;9477;51.414;10.362;2024-03-08T07:07:58;4.90;92.80
18694;DHT22;9477;51.414;10.362;2024-03-08T07:10:01;4.90;92.90
18694;DHT22;9477;51.414;10.362;2024-03-08T07:12:03;4.80;92.90
18694;DHT22;9477;51.414;10.362;2024-03-08T07:14:06;5.00;92.90
18694;DHT22;9477;51.414;10.362;2024-03-08T07:16:10;5.00;93.00
18694;DHT22;9477;51.414;10.362;2024-03-08T07:18:15;5.00;93.00
18694;DHT22;9477;51.414;10.362;2024-03-08T07:20:18;5.10;93.00
18694;DHT22;9477;51.414;10.362;2024-03-08T07:22:21;5.10;93.10
18694;DHT22;9477;51.414;10.362;2024-03-08T07:24:25;5.10;93.20
18694;DHT22;9477;51.414;10.362;2024-03-08T07:26:39;5.10;93.20
18694;DHT22;9477;51.414;10.362;2024-03-08T07:28:42;5.20;93.20
18694;DHT22;9477;51.414;10.362;2024-03-08T07:30:45;5.20;93.20
18694;DHT22;9477;51.414;10.362;2024-03-08T07:33:09;5.20;93.30
18694;DHT22;9477;51.414;10.362;2024-03-08T07:35:15;5.30;93.30
18694;DHT22;9477;51.414;10.362;2024-03-08T07:37:20;5.30;93.30
18694;DHT22;9477;51.414;10.362;2024-03-08T07:39:23;5.40;93.40
18694;DHT22;9477;51.414;10.362;2024-03-08T07:41:26;5.40;93.40
18694;DHT22;9477;51.414;10.362;2024-03-08T07:43:29;5.40;93.40
18694;DHT22;9477;51.414;10.362;2024-03-08T07:45:32;5.50;93.40
18694;DHT22;9477;51.414;10.362;2024-03-08T07:47:34;5.50;93.40
18694;DHT22;9477;51.414;10.362;2024-03-08T07:49:38;5.50;93.40
18694;DHT22;9477;51.414;10.362;2024-03-08T07:51:42;5.50;93.40
18694;DHT22;9477;51.414;10.362;2024-03-08T07:53:45;5.50;93.50
18694;DHT22;9477;51.414;10.362;2024-03-08T07:55:48;5.60;93.50
18694;DHT22;9477;51.414;10.362;2024-03-08T07:57:51;5.60;93.60
18694;DHT22;9477;51.414;10.362;2024-03-08T07:59:54;5.60;93.60
18694;DHT22;9477;51.414;10.362;2024-03-08T08:01:57;5.70;93.70
18694;DHT22;9477;51.414;10.362;2024-03-08T08:04:01;5.70;93.70
18694;DHT22;9477;51.414;10.362;2024-03-08T08:06:03;5.70;93.70
18694;DHT22;9477;51.414;10.362;2024-03-08T08:08:09;5.80;93.70
18694;DHT22;9477;51.414;10.362;2024-03-08T08:10:13;5.90;93.70
18694;DHT22;9477;51.414;10.362;2024-03-08T08:12:20;5.90;93.80
18694;DHT22;9477;51.414;10.362;2024-03-08T08:14:23;5.90;93.80
18694;DHT22;9477;51.414;10.362;2024-03-08T08:16:26;6.00;93.80
18694;DHT22;9477;51.414;10.362;2024-03-08T08:18:28;6.00;93.90
18694;DHT22;9477;51.414;10.362;2024-03-08T08:20:32;6.10;94.00
18694;DHT22;9477;51.414;10.362;2024-03-08T08:22:33;6.20;93.90
18694;DHT22;9477;51.414;10.362;2024-03-08T08:24:38;6.30;93.90
18694;DHT22;9477;51.414;10.362;2024-03-08T08:26:41;6.30;93.90
18694;DHT22;9477;51.414;10.362;2024-03-08T08:28:46;6.40;93.90
18694;DHT22;9477;51.414;10.362;2024-03-08T08:30:49;6.40;93.90
18694;DHT22;9477;51.414;10.362;2024-03-08T08:32:52;6.40;93.80
18694;DHT22;9477;51.414;10.362;2024-03-08T08:34:54;6.50;93.90
18694;DHT22;9477;51.414;10.362;2024-03-08T08:36:57;6.50;93.90
18694;DHT22;9477;51.414;10.362;2024-03-08T08:39:00;6.50;93.90
18694;DHT22;9477;51.414;10.362;2024-03-08T08:41:06;6.60;93.90
18694;DHT22;9477;51.414;10.362;2024-03-08T08:43:09;6.60;93.90
18694;DHT22;9477;51.414;10.362;2024-03-08T08:45:12;6.60;93.80
18694;DHT22;9477;51.414;10.362;2024-03-08T08:47:18;6.70;93.90
18694;DHT22;9477;51.414;10.362;2024-03-08T08:49:21;6.80;94.00
18694;DHT22;9477;51.414;10.362;2024-03-08T08:51:25;6.80;93.90
18694;DHT22;9477;51.414;10.362;2024-03-08T08:53:29;6.90;94.20
18694;DHT22;9477;51.414;10.362;2024-03-08T08:55:32;6.90;93.90
18694;DHT22;9477;51.414;10.362;2024-03-08T08:57:39;7.00;93.80
18694;DHT22;9477;51.414;10.362;2024-03-08T08:59:41;7.00;93.80
18694;DHT22;9477;51.414;10.362;2024-03-08T09:01:44;7.10;93.90
18694;DHT22;9477;51.414;10.362;2024-03-08T09:03:48;7.10;93.80
18694;DHT22;9477;51.414;10.362;2024-03-08T09:05:52;7.20;93.80
18694;DHT22;9477;51.414;10.362;2024-03-08T09:07:55;7.20;93.80
18694;DHT22;9477;51.414;10.362;2024-03-08T09:09:58;7.20;93.80
18694;DHT22;9477;51.414;10.362;2024-03-08T09:12:16;7.20;94.00
18694;DHT22;9477;51.414;10.362;2024-03-08T09:14:21;7.40;94.10
18694;DHT22;9477;51.414;10.362;2024-03-08T09:16:23;7.50;94.10
18694;DHT22;9477;51.414;10.362;2024-03-08T09:18:26;7.50;94.00
18694;DHT22;9477;51.414;10.362;2024-03-08T09:20:28;7.60;93.80
18694;DHT22;9477;51.414;10.362;2024-03-08T09:22:33;7.60;93.90
18694;DHT22;9477;51.414;10.362;2024-03-08T09:24:36;7.60;93.80
18694;DHT22;9477;51.414;10.362;2024-03-08T09:26:39;7.70;93.80
18694;DHT22;9477;51.414;10.362;2024-03-08T09:28:43;7.60;93.60
18694;DHT22;9477;51.414;10.362;2024-03-08T09:30:48;7.70;93.80
18694;DHT22;9477;51.414;10.362;2024-03-08T09:33:00;7.80;93.90
18694;DHT22;9477;51.414;10.362;2024-03-08T09:35:04;7.90;93.90
18694;DHT22;9477;51.414;10.362;2024-03-08T09:37:09;7.90;93.60
18694;DHT22;9477;51.414;10.362;2024-03-08T09:39:11;7.90;93.60
18694;DHT22;9477;51.414;10.362;2024-03-08T09:41:18;8.00;93.70
18694;DHT22;9477;51.414;10.362;2024-03-08T09:43:21;8.00;93.70
18694;DHT22;9477;51.414;10.362;2024-03-08T09:45:26;8.10;93.60
18694;DHT22;9477;51.414;10.362;2024-03-08T09:47:32;8.10;93.60
18694;DHT22;9477;51.414;10.362;2024-03-08T09:49:36;8.20;93.60
18694;DHT22;9477;51.414;10.362;2024-03-08T09:51:40;8.30;93.80
18694;DHT22;9477;51.414;10.362;2024-03-08T09:53:43;8.30;93.70
18694;DHT22;9477;51.414;10.362;2024-03-08T09:55:46;8.30;93.60
18694;DHT22;9477;51.414;10.362;2024-03-08T09:57:51;8.40;93.70
18694;DHT22;9477;51.414;10.362;2024-03-08T10:00:13;8.40;93.60
18694;DHT22;9477;51.414;10.362;2024-03-08T10:02:26;8.40;93.60
18694;DHT22;9477;51.414;10.362;2024-03-08T10:04:31;8.50;93.60
18694;DHT22;9477;51.414;10.362;2024-03-08T10:06:35;8.50;93.40
18694;DHT22;9477;51.414;10.362;2024-03-08T10:08:38;8.50;93.30
18694;DHT22;9477;51.414;10.362;2024-03-08T10:10:43;8.60;93.40
18694;DHT22;9477;51.414;10.362;2024-03-08T10:12:47;8.60;93.40
18694;DHT22;9477;51.414;10.362;2024-03-08T10:14:51;8.60;93.40
18694;DHT22;9477;51.414;10.362;2024-03-08T10:16:57;8.60;93.20
18694;DHT22;9477;51.414;10.362;2024-03-08T10:19:02;8.70;93.40
18694;DHT22;9477;51.414;10.362;2024-03-08T10:21:07;8.70;93.20
18694;DHT22;9477;51.414;10.362;2024-03-08T10:23:11;8.70;93.20
18694;DHT22;9477;51.414;10.362;2024-03-08T10:25:14;8.80;93.40
18694;DHT22;9477;51.414;10.362;2024-03-08T10:27:17;8.80;93.30
18694;DHT22;9477;51.414;10.362;2024-03-08T10:29:20;8.90;93.50
18694;DHT22;9477;51.414;10.362;2024-03-08T10:31:22;8.90;93.40
18694;DHT22;9477;51.414;10.362;2024-03-08T10:33:25;9.00;93.50
18694;DHT22;9477;51.414;10.362;2024-03-08T10:35:28;9.10;93.30
18694;DHT22;9477;51.414;10.362;2024-03-08T10:37:32;9.10;93.30
18694;DHT22;9477;51.414;10.362;2024-03-08T10:39:36;9.10;93.10
18694;DHT22;9477;51.414;10.362;2024-03-08T10:41:42;9.20;93.20
18694;DHT22;9477;51.414;10.362;2024-03-08T10:44:01;9.10;92.90
18694;DHT22;9477;51.414;10.362;2024-03-08T10:46:20;9.10;92.70
18694;DHT22;9477;51.414;10.362;2024-03-08T10:48:28;9.10;92.80
18694;DHT22;9477;51.414;10.362;2024-03-08T10:50:38;9.10;92.90
18694;DHT22;9477;51.414;10.362;2024-03-08T10:52:43;9.00;92.80
18694;DHT22;9477;51.414;10.362;2024-03-08T10:54:47;9.00;92.80
18694;DHT22;9477;51.414;10.362;2024-03-08T10:56:51;9.10;93.00
18694;DHT22;9477;51.414;10.362;2024-03-08T10:58:54;9.10;92.80
18694;DHT22;9477;51.414;10.362;2024-03-08T11:00:58;9.10;92.80
18694;DHT22;9477;51.414;10.362;2024-03-08T11:03:00;9.10;92.90
18694;DHT22;9477;51.414;10.362;2024-03-08T11:05:10;9.20;93.00
18694;DHT22;9477;51.414;10.362;2024-03-08T11:07:15;9.20;92.80
18694;DHT22;9477;51.414;10.362;2024-03-08T11:09:29;9.30;93.10
18694;DHT22;9477;51.414;10.362;2024-03-08T11:11:33;9.40;93.10
18694;DHT22;9477;51.414;10.362;2024-03-08T11:13:40;9.50;93.40
18694;DHT22;9477;51.414;10.362;2024-03-08T11:15:42;9.60;93.30
18694;DHT22;9477;51.414;10.362;2024-03-08T11:17:47;9.60;92.90
18694;DHT22;9477;51.414;10.362;2024-03-08T11:19:50;9.70;92.80
18694;DHT22;9477;51.414;10.362;2024-03-08T11:21:58;9.80;93.00
18694;DHT22;9477;51.414;10.362;2024-03-08T11:24:02;9.80;92.90
18694;DHT22;9477;51.414;10.362;2024-03-08T11:26:18;9.80;92.70
18694;DHT22;9477;51.414;10.362;2024-03-08T11:28:24;9.80;92.70
18694;DHT22;9477;51.414;10.362;2024-03-08T11:30:28;9.80;92.20
18694;DHT22;9477;51.414;10.362;2024-03-08T11:32:30;9.80;92.20
18694;DHT22;9477;51.414;10.362;2024-03-08T11:34:34;9.80;92.40
18694;DHT22;9477;51.414;10.362;2024-03-08T11:36:36;9.90;92.70
18694;DHT22;9477;51.414;10.362;2024-03-08T11:38:40;9.90;92.60
18694;DHT22;9477;51.414;10.362;2024-03-08T11:40:42;10.00;92.50
18694;DHT22;9477;51.414;10.362;2024-03-08T11:42:47;10.10;92.60
18694;DHT22;9477;51.414;10.362;2024-03-08T11:44:51;10.10;92.40
18694;DHT22;9477;51.414;10.362;2024-03-08T11:46:54;10.30;92.20
18694;DHT22;9477;51.414;10.362;2024-03-08T11:48:57;10.30;92.10
18694;DHT22;9477;51.414;10.362;2024-03-08T11:51:00;10.20;92.00
18694;DHT22;9477;51.414;10.362;2024-03-08T11:53:06;10.20;92.20
18694;DHT22;9477;51.414;10.362;2024-03-08T11:55:10;10.30;92.50
18694;DHT22;9477;51.414;10.362;2024-03-08T11:57:15;10.30;92.40
18694;DHT22;9477;51.414;10.362;2024-03-08T11:59:20;10.30;92.20
18694;DHT22;9477;51.414;10.362;2024-03-08T12:01:23;10.30;92.40
18694;DHT22;9477;51.414;10.362;2024-03-08T12:03:26;10.40;92.60
18694;DHT22;9477;51.414;10.362;2024-03-08T12:05:30;10.40;92.50
18694;DHT22;9477;51.414;10.362;2024-03-08T12:07:35;10.50;92.60
18694;DHT22;9477;51.414;10.362;2024-03-08T12:09:37;10.60;92.60
18694;DHT22;9477;51.414;10.362;2024-03-08T12:11:40;10.60;92.30
18694;DHT22;9477;51.414;10.362;2024-03-08T12:13:44;10.60;92.30
18694;DHT22;9477;51.414;10.362;2024-03-08T12:15:51;10.60;92.30
18694;DHT22;9477;51.414;10.362;2024-03-08T12:17:54;10.60;92.30
18694;DHT22;9477;51.414;10.362;2024-03-08T12:20:11;10.70;92.40
18694;DHT22;9477;51.414;10.362;2024-03-08T12:22:15;10.80;92.50
18694;DHT22;9477;51.414;10.362;2024-03-08T12:24:18;10.90;92.40
18694;DHT22;9477;51.414;10.362;2024-03-08T12:26:24;10.80;91.90
18694;DHT22;9477;51.414;10.362;2024-03-08T12:28:27;10.80;92.00
18694;DHT22;9477;51.414;10.362;2024-03-08T12:30:32;10.80;92.20
18694;DHT22;9477;51.414;10.362;2024-03-08T12:32:36;10.80;92.20
18694;DHT22;9477;51.414;10.362;2024-03-08T12:34:40;10.90;92.30
18694;DHT22;9477;51.414;10.362;2024-03-08T12:36:47;11.00;92.30
18694;DHT22;9477;51.414;10.362;2024-03-08T12:38:49;11.10;92.30
18694;DHT22;9477;51.414;10.362;2024-03-08T12:40:55;11.00;91.80
18694;DHT22;9477;51.414;10.362;2024-03-08T12:42:59;11.10;92.20
18694;DHT22;9477;51.414;10.362;2024-03-08T12:45:02;11.10;92.00
18694;DHT22;9477;51.414;10.362;2024-03-08T12:47:08;11.10;92.00
18694;DHT22;9477;51.414;10.362;2024-03-08T12:49:12;11.10;91.80
18694;DHT22;9477;51.414;10.362;2024-03-08T12:51:15;11.10;92.00
18694;DHT22;9477;51.414;10.362;2024-03-08T12:53:19;11.20;92.10
18694;DHT22;9477;51.414;10.362;2024-03-08T12:55:24;11.20;92.00
18694;DHT22;9477;51.414;10.362;2024-03-08T12:57:27;11.20;92.00
18694;DHT22;9477;51.414;10.362;2024-03-08T12:59:30;11.20;92.00
18694;DHT22;9477;51.414;10.362;2024-03-08T13:01:34;11.20;92.10
18694;DHT22;9477;51.414;10.362;2024-03-08T13:03:39;11.30;92.00
18694;DHT22;9477;51.414;10.362;2024-03-08T13:05:43;11.30;91.90
18694;DHT22;9477;51.414;10.362;2024-03-08T13:07:47;11.30;92.00
18694;DHT22;9477;51.414;10.362;2024-03-08T13:09:49;11.40;92.30
18694;DHT22;9477;51.414;10.362;2024-03-08T13:11:52;11.50;92.30
18694;DHT22;9477;51.414;10.362;2024-03-08T13:13:56;11.50;92.10
18694;DHT22;9477;51.414;10.362;2024-03-08T13:16:01;11.50;92.10